sensor_id;sensor_type;location;lat;lon;timestamp;pressure;altitude;pressure_sealevel;temperature;humidity
6218;BME280;3142;48.206;11.550;2023-04-08T00:01:43;95804.56;;;9.17;66.15
6218;BME280;3142;48.206;11.550;2023-04-08T00:04:10;95801.16;;;9.17;65.31
6218;BME280;3142;48.206;11.550;2023-04-08T00:06:38;95804.53;;;9.11;66.39
6218;BME280;3142;48.206;11.550;2023-04-08T00:09:05;95807.78;;;8.92;65.86
6218;BME280;3142;48.206;11.550;2023-04-08T00:11:32;95808.38;;;8.94;65.99
6218;BME280;3142;48.206;11.550;2023-04-08T00:13:59;95808.00;;;8.97;66.84
6218;BME280;3142;48.206;11.550;2023-04-08T00:16:25;95808.38;;;8.94;66.48
6218;BME280;3142;48.206;11.550;2023-04-08T00:18:52;95807.41;;;8.95;66.61
6218;BME280;3142;48.206;11.550;2023-04-08T00:21:18;95812.81;;;8.93;66.57
6218;BME280;3142;48.206;11.550;2023-04-08T00:23:45;95806.31;;;8.89;67.50
6218;BME280;3142;48.206;11.550;2023-04-08T00:26:12;95808.31;;;8.87;66.45
6218;BME280;3142;48.206;11.550;2023-04-08T00:28:39;95806.28;;;8.82;66.93
6218;BME280;3142;48.206;11.550;2023-04-08T00:31:06;95802.25;;;8.80;67.62
6218;BME280;3142;48.206;11.550;2023-04-08T00:33:33;95799.81;;;8.78;67.24
6218;BME280;3142;48.206;11.550;2023-04-08T00:36:00;95806.56;;;8.73;67.44
6218;BME280;3142;48.206;11.550;2023-04-08T00:38:27;95814.56;;;8.71;68.08
6218;BME280;3142;48.206;11.550;2023-04-08T00:40:53;95810.91;;;8.66;68.56
6218;BME280;3142;48.206;11.550;2023-04-08T00:43:20;95822.50;;;8.63;67.47
6218;BME280;3142;48.206;11.550;2023-04-08T00:45:48;95809.84;;;8.60;68.12
6218;BME280;3142;48.206;11.550;2023-04-08T00:48:15;95812.91;;;8.64;69.09
6218;BME280;3142;48.206;11.550;2023-04-08T00:50:42;95814.53;;;8.65;68.84
6218;BME280;3142;48.206;11.550;2023-04-08T00:53:10;95821.25;;;8.59;68.58
6218;BME280;3142;48.206;11.550;2023-04-08T00:55:37;95818.66;;;8.59;68.71
6218;BME280;3142;48.206;11.550;2023-04-08T00:58:04;95814.19;;;8.53;68.59
6218;BME280;3142;48.206;11.550;2023-04-08T01:00:31;95815.09;;;8.45;69.46
6218;BME280;3142;48.206;11.550;2023-04-08T01:03:04;95806.47;;;8.45;69.27
6218;BME280;3142;48.206;11.550;2023-04-08T01:05:38;95811.44;;;8.40;69.57
6218;BME280;3142;48.206;11.550;2023-04-08T01:08:06;95808.03;;;8.39;69.54
6218;BME280;3142;48.206;11.550;2023-04-08T01:10:35;95806.59;;;8.37;69.69
6218;BME280;3142;48.206;11.550;2023-04-08T01:13:04;95809.06;;;8.30;69.37
6218;BME280;3142;48.206;11.550;2023-04-08T01:15:34;95809.88;;;8.30;70.46
6218;BME280;3142;48.206;11.550;2023-04-08T01:18:07;95807.66;;;8.27;70.69
6218;BME280;3142;48.206;11.550;2023-04-08T01:20:35;95811.06;;;8.28;70.24
6218;BME280;3142;48.206;11.550;2023-04-08T01:23:14;95811.25;;;8.26;70.09
6218;BME280;3142;48.206;11.550;2023-04-08T01:25:46;95811.06;;;8.28;71.32
6218;BME280;3142;48.206;11.550;2023-04-08T01:28:15;95811.25;;;8.26;71.34
6218;BME280;3142;48.206;11.550;2023-04-08T01:30:43;95812.06;;;8.27;70.54
6218;BME280;3142;48.206;11.550;2023-04-08T01:33:14;95810.44;;;8.26;70.95
6218;BME280;3142;48.206;11.550;2023-04-08T01:35:42;95812.06;;;8.27;70.75
6218;BME280;3142;48.206;11.550;2023-04-08T01:38:11;95809.81;;;8.24;71.33
6218;BME280;3142;48.206;11.550;2023-04-08T01:40:39;95806.22;;;8.25;71.50
6218;BME280;3142;48.206;11.550;2023-04-08T01:43:09;95812.75;;;8.21;70.85
6218;BME280;3142;48.206;11.550;2023-04-08T01:45:38;95807.94;;;8.18;70.74
6218;BME280;3142;48.206;11.550;2023-04-08T01:48:04;95812.50;;;8.16;71.59
6218;BME280;3142;48.206;11.550;2023-04-08T01:50:32;95811.28;;;8.12;71.68
6218;BME280;3142;48.206;11.550;2023-04-08T01:52:59;95811.91;;;8.14;72.12
6218;BME280;3142;48.206;11.550;2023-04-08T01:55:27;95807.31;;;8.16;71.64
6218;BME280;3142;48.206;11.550;2023-04-08T01:57:58;95815.50;;;8.13;71.12
6218;BME280;3142;48.206;11.550;2023-04-08T02:00:29;95814.06;;;8.10;72.03
6218;BME280;3142;48.206;11.550;2023-04-08T02:02:56;95814.59;;;8.06;72.53
6218;BME280;3142;48.206;11.550;2023-04-08T02:05:23;95811.34;;;8.03;72.43
6218;BME280;3142;48.206;11.550;2023-04-08T02:07:50;95818.53;;;8.01;72.72
6218;BME280;3142;48.206;11.550;2023-04-08T02:10:16;95819.53;;;8.00;73.08
6218;BME280;3142;48.206;11.550;2023-04-08T02:12:43;95811.53;;;8.02;73.20
6218;BME280;3142;48.206;11.550;2023-04-08T02:15:10;95821.78;;;8.03;72.45
6218;BME280;3142;48.206;11.550;2023-04-08T02:17:42;95815.69;;;7.96;72.59
6218;BME280;3142;48.206;11.550;2023-04-08T02:20:12;95813.53;;;8.00;73.05
6218;BME280;3142;48.206;11.550;2023-04-08T02:22:45;95815.03;;;7.94;73.19
6218;BME280;3142;48.206;11.550;2023-04-08T02:25:14;95819.63;;;7.92;73.24
6218;BME280;3142;48.206;11.550;2023-04-08T02:27:42;95813.78;;;7.90;72.69
6218;BME280;3142;48.206;11.550;2023-04-08T02:30:10;95821.41;;;7.92;73.58
6218;BME280;3142;48.206;11.550;2023-04-08T02:32:37;95820.16;;;7.88;73.41
6218;BME280;3142;48.206;11.550;2023-04-08T02:35:05;95813.16;;;7.88;72.60
6218;BME280;3142;48.206;11.550;2023-04-08T02:37:33;95819.38;;;7.87;72.65
6218;BME280;3142;48.206;11.550;2023-04-08T02:39:59;95823.13;;;7.85;73.00
6218;BME280;3142;48.206;11.550;2023-04-08T02:42:26;95818.75;;;7.85;72.74
6218;BME280;3142;48.206;11.550;2023-04-08T02:44:52;95816.84;;;7.79;73.12
6218;BME280;3142;48.206;11.550;2023-04-08T02:47:19;95817.50;;;7.81;72.81
6218;BME280;3142;48.206;11.550;2023-04-08T02:49:45;95813.91;;;7.82;73.85
6218;BME280;3142;48.206;11.550;2023-04-08T02:52:13;95809.69;;;7.81;72.96
6218;BME280;3142;48.206;11.550;2023-04-08T02:54:39;95809.03;;;7.79;73.61
6218;BME280;3142;48.206;11.550;2023-04-08T02:57:06;95813.59;;;7.77;73.63
6218;BME280;3142;48.206;11.550;2023-04-08T02:59:33;95817.19;;;7.76;74.34
6218;BME280;3142;48.206;11.550;2023-04-08T03:02:01;95813.97;;;7.74;73.98
6218;BME280;3142;48.206;11.550;2023-04-08T03:04:28;95809.75;;;7.73;74.67
6218;BME280;3142;48.206;11.550;2023-04-08T03:06:54;95812.97;;;7.75;74.44
6218;BME280;3142;48.206;11.550;2023-04-08T03:09:22;95818.19;;;7.75;73.81
6218;BME280;3142;48.206;11.550;2023-04-08T03:11:48;95820.78;;;7.75;74.73
6218;BME280;3142;48.206;11.550;2023-04-08T03:14:17;95829.41;;;7.76;74.21
6218;BME280;3142;48.206;11.550;2023-04-08T03:16:43;95824.38;;;7.74;74.24
6218;BME280;3142;48.206;11.550;2023-04-08T03:19:10;95817.38;;;7.75;74.06
6218;BME280;3142;48.206;11.550;2023-04-08T03:21:36;95823.59;;;7.73;73.95
6218;BME280;3142;48.206;11.550;2023-04-08T03:24:03;95821.78;;;7.74;74.98
6218;BME280;3142;48.206;11.550;2023-04-08T03:26:30;95827.97;;;7.73;74.44
6218;BME280;3142;48.206;11.550;2023-04-08T03:28:57;95826.19;;;7.73;74.39
6218;BME280;3142;48.206;11.550;2023-04-08T03:31:24;95833.00;;;7.75;75.07
6218;BME280;3142;48.206;11.550;2023-04-08T03:33:50;95833.63;;;7.77;75.23
6218;BME280;3142;48.206;11.550;2023-04-08T03:36:17;95832.81;;;7.76;74.29
6218;BME280;3142;48.206;11.550;2023-04-08T03:38:43;95832.66;;;7.78;74.26
6218;BME280;3142;48.206;11.550;2023-04-08T03:41:10;95835.78;;;7.73;74.68
6218;BME280;3142;48.206;11.550;2023-04-08T03:43:38;95827.78;;;7.75;74.33
6218;BME280;3142;48.206;11.550;2023-04-08T03:46:04;95830.59;;;7.73;74.30
6218;BME280;3142;48.206;11.550;2023-04-08T03:48:31;95832.19;;;7.74;75.07
6218;BME280;3142;48.206;11.550;2023-04-08T03:50:57;95833.19;;;7.73;75.73
6218;BME280;3142;48.206;11.550;2023-04-08T03:53:24;95833.81;;;7.75;76.00
6218;BME280;3142;48.206;11.550;2023-04-08T03:55:52;95837.22;;;7.76;75.49
6218;BME280;3142;48.206;11.550;2023-04-08T03:58:18;95842.63;;;7.74;75.20
6218;BME280;3142;48.206;11.550;2023-04-08T04:00:46;95835.59;;;7.75;76.05
6218;BME280;3142;48.206;11.550;2023-04-08T04:03:12;95841.44;;;7.77;76.10
6218;BME280;3142;48.206;11.550;2023-04-08T04:05:39;95843.88;;;7.78;75.72
6218;BME280;3142;48.206;11.550;2023-04-08T04:08:06;95839.66;;;7.77;75.84
6218;BME280;3142;48.206;11.550;2023-04-08T04:10:33;95843.06;;;7.78;76.03
6218;BME280;3142;48.206;11.550;2023-04-08T04:13:00;95854.47;;;7.77;76.11
6218;BME280;3142;48.206;11.550;2023-04-08T04:15:26;95853.84;;;7.75;76.12
6218;BME280;3142;48.206;11.550;2023-04-08T04:17:54;95860.22;;;7.72;76.56
6218;BME280;3142;48.206;11.550;2023-04-08T04:20:20;95862.81;;;7.72;76.94
6218;BME280;3142;48.206;11.550;2023-04-08T04:22:47;95863.00;;;7.70;76.55
6218;BME280;3142;48.206;11.550;2023-04-08T04:25:13;95860.41;;;7.70;76.17
6218;BME280;3142;48.206;11.550;2023-04-08T04:27:39;95868.66;;;7.74;76.04
6218;BME280;3142;48.206;11.550;2023-04-08T04:30:07;95864.25;;;7.75;76.89
6218;BME280;3142;48.206;11.550;2023-04-08T04:32:33;95866.84;;;7.75;76.22
6218;BME280;3142;48.206;11.550;2023-04-08T04:35:01;95872.69;;;7.77;76.73
6218;BME280;3142;48.206;11.550;2023-04-08T04:37:28;95871.25;;;7.74;77.10
6218;BME280;3142;48.206;11.550;2023-04-08T04:39:54;95872.06;;;7.75;76.60
6218;BME280;3142;48.206;11.550;2023-04-08T04:42:20;95879.34;;;7.79;76.97
6218;BME280;3142;48.206;11.550;2023-04-08T04:44:47;95882.31;;;7.76;76.05
6218;BME280;3142;48.206;11.550;2023-04-08T04:47:13;95886.53;;;7.77;76.81
6218;BME280;3142;48.206;11.550;2023-04-08T04:49:40;95891.28;;;7.73;77.05
6218;BME280;3142;48.206;11.550;2023-04-08T04:52:08;95883.13;;;7.77;76.39
6218;BME280;3142;48.206;11.550;2023-04-08T04:54:35;95884.53;;;7.79;76.21
6218;BME280;3142;48.206;11.550;2023-04-08T04:57:01;95882.59;;;7.81;76.39
6218;BME280;3142;48.206;11.550;2023-04-08T04:59:27;95874.94;;;7.80;77.41
6218;BME280;3142;48.206;11.550;2023-04-08T05:01:54;95882.94;;;7.78;76.87
6218;BME280;3142;48.206;11.550;2023-04-08T05:04:21;95880.50;;;7.77;76.92
6218;BME280;3142;48.206;11.550;2023-04-08T05:06:48;95885.19;;;7.81;77.38
6218;BME280;3142;48.206;11.550;2023-04-08T05:09:16;95893.03;;;7.81;77.60
6218;BME280;3142;48.206;11.550;2023-04-08T05:11:42;95886.47;;;7.85;77.49
6218;BME280;3142;48.206;11.550;2023-04-08T05:14:08;95890.13;;;7.91;77.63
6218;BME280;3142;48.206;11.550;2023-04-08T05:16:35;95894.16;;;7.93;77.59
6218;BME280;3142;48.206;11.550;2023-04-08T05:19:02;95893.19;;;7.94;77.59
6218;BME280;3142;48.206;11.550;2023-04-08T05:21:29;95888.25;;;7.99;76.71
6218;BME280;3142;48.206;11.550;2023-04-08T05:23:56;95894.72;;;8.03;76.75
6218;BME280;3142;48.206;11.550;2023-04-08T05:26:24;95884.94;;;8.06;76.99
6218;BME280;3142;48.206;11.550;2023-04-08T05:28:51;95889.53;;;8.03;77.15
6218;BME280;3142;48.206;11.550;2023-04-08T05:31:18;95884.84;;;7.99;77.25
6218;BME280;3142;48.206;11.550;2023-04-08T05:33:45;95884.94;;;8.06;77.90
6218;BME280;3142;48.206;11.550;2023-04-08T05:36:12;95888.63;;;8.11;76.74
6218;BME280;3142;48.206;11.550;2023-04-08T05:38:39;95890.06;;;8.14;77.18
6218;BME280;3142;48.206;11.550;2023-04-08T05:41:07;95892.50;;;8.15;77.19
6218;BME280;3142;48.206;11.550;2023-04-08T05:43:35;95887.72;;;8.19;76.98
6218;BME280;3142;48.206;11.550;2023-04-08T05:46:05;95886.09;;;8.18;77.83
6218;BME280;3142;48.206;11.550;2023-04-08T05:48:31;95884.75;;;8.22;77.86
6218;BME280;3142;48.206;11.550;2023-04-08T05:50:58;95894.03;;;8.24;76.95
6218;BME280;3142;48.206;11.550;2023-04-08T05:53:24;95896.25;;;8.27;76.86
6218;BME280;3142;48.206;11.550;2023-04-08T05:55:50;95895.63;;;8.25;77.69
6218;BME280;3142;48.206;11.550;2023-04-08T05:58:17;95896.44;;;8.26;77.20
6218;BME280;3142;48.206;11.550;2023-04-08T06:00:45;95907.13;;;8.31;77.92
6218;BME280;3142;48.206;11.550;2023-04-08T06:03:11;95897.69;;;8.30;76.88
6218;BME280;3142;48.206;11.550;2023-04-08T06:05:37;95898.31;;;8.32;77.67
6218;BME280;3142;48.206;11.550;2023-04-08T06:08:04;95905.88;;;8.27;77.92
6218;BME280;3142;48.206;11.550;2023-04-08T06:10:31;95905.06;;;8.26;78.71
6218;BME280;3142;48.206;11.550;2023-04-08T06:12:57;95916.22;;;8.35;77.40
6218;BME280;3142;48.206;11.550;2023-04-08T06:15:24;95914.09;;;8.39;77.29
6218;BME280;3142;48.206;11.550;2023-04-08T06:17:53;95920.13;;;8.39;77.56
6218;BME280;3142;48.206;11.550;2023-04-08T06:20:19;95920.38;;;8.44;77.87
6218;BME280;3142;48.206;11.550;2023-04-08T06:22:46;95923.16;;;8.43;77.29
6218;BME280;3142;48.206;11.550;2023-04-08T06:25:12;95919.50;;;8.37;77.36
6218;BME280;3142;48.206;11.550;2023-04-08T06:27:39;95919.00;;;8.33;78.09
6218;BME280;3142;48.206;11.550;2023-04-08T06:30:06;95919.66;;;8.36;78.05
6218;BME280;3142;48.206;11.550;2023-04-08T06:32:33;95924.19;;;8.33;78.71
6218;BME280;3142;48.206;11.550;2023-04-08T06:35:01;95922.91;;;8.38;78.51
6218;BME280;3142;48.206;11.550;2023-04-08T06:37:27;95919.94;;;8.41;78.54
6218;BME280;3142;48.206;11.550;2023-04-08T06:39:54;95924.78;;;8.44;77.23
6218;BME280;3142;48.206;11.550;2023-04-08T06:42:20;95928.81;;;8.46;77.06
6218;BME280;3142;48.206;11.550;2023-04-08T06:44:46;95930.91;;;8.51;77.24
6218;BME280;3142;48.206;11.550;2023-04-08T06:47:13;95933.84;;;8.48;77.68
6218;BME280;3142;48.206;11.550;2023-04-08T06:49:41;95937.00;;;8.43;77.79
6218;BME280;3142;48.206;11.550;2023-04-08T06:52:08;95938.88;;;8.35;78.65
6218;BME280;3142;48.206;11.550;2023-04-08T06:54:35;95946.78;;;8.26;78.26
6218;BME280;3142;48.206;11.550;2023-04-08T06:57:01;95948.13;;;8.22;79.10
6218;BME280;3142;48.206;11.550;2023-04-08T06:59:28;95950.44;;;8.32;78.38
6218;BME280;3142;48.206;11.550;2023-04-08T07:01:55;95946.84;;;8.33;78.37
6218;BME280;3142;48.206;11.550;2023-04-08T07:04:21;95950.41;;;8.40;78.90
6218;BME280;3142;48.206;11.550;2023-04-08T07:06:47;95948.97;;;8.52;77.77
6218;BME280;3142;48.206;11.550;2023-04-08T07:09:15;95957.78;;;8.51;77.34
6218;BME280;3142;48.206;11.550;2023-04-08T07:11:42;95957.06;;;8.43;77.79
6218;BME280;3142;48.206;11.550;2023-04-08T07:14:08;95954.63;;;8.41;77.86
6218;BME280;3142;48.206;11.550;2023-04-08T07:16:35;95968.44;;;8.27;77.22
6218;BME280;3142;48.206;11.550;2023-04-08T07:19:01;95967.25;;;8.29;78.16
6218;BME280;3142;48.206;11.550;2023-04-08T07:21:28;95962.69;;;8.31;77.39
6218;BME280;3142;48.206;11.550;2023-04-08T07:23:55;95965.09;;;8.33;76.71
6218;BME280;3142;48.206;11.550;2023-04-08T07:26:23;95969.34;;;8.34;76.62
6218;BME280;3142;48.206;11.550;2023-04-08T07:28:49;95972.84;;;8.26;76.29
6218;BME280;3142;48.206;11.550;2023-04-08T07:31:17;95975.53;;;8.18;75.33
6218;BME280;3142;48.206;11.550;2023-04-08T07:33:44;95976.94;;;8.21;75.34
6218;BME280;3142;48.206;11.550;2023-04-08T07:36:11;95974.44;;;8.13;73.84
6218;BME280;3142;48.206;11.550;2023-04-08T07:38:38;95973.44;;;8.14;73.54
6218;BME280;3142;48.206;11.550;2023-04-08T07:41:05;95972.09;;;8.18;72.65
6218;BME280;3142;48.206;11.550;2023-04-08T07:43:33;95970.97;;;8.35;72.13
6218;BME280;3142;48.206;11.550;2023-04-08T07:46:01;95970.81;;;8.51;68.94
6218;BME280;3142;48.206;11.550;2023-04-08T07:48:27;95976.28;;;8.56;68.97
6218;BME280;3142;48.206;11.550;2023-04-08T07:50:54;95964.88;;;8.57;68.98
6218;BME280;3142;48.206;11.550;2023-04-08T07:53:21;95970.00;;;8.66;68.12
6218;BME280;3142;48.206;11.550;2023-04-08T07:55:48;95967.66;;;8.71;68.16
6218;BME280;3142;48.206;11.550;2023-04-08T07:58:15;95974.84;;;8.69;67.47
6218;BME280;3142;48.206;11.550;2023-04-08T08:00:43;95972.06;;;8.70;68.18
6218;BME280;3142;48.206;11.550;2023-04-08T08:03:09;95972.06;;;8.70;68.04
6218;BME280;3142;48.206;11.550;2023-04-08T08:05:35;95967.66;;;8.71;68.01
6218;BME280;3142;48.206;11.550;2023-04-08T08:08:02;95971.44;;;8.68;66.54
6218;BME280;3142;48.206;11.550;2023-04-08T08:10:29;95979.44;;;8.67;66.28
6218;BME280;3142;48.206;11.550;2023-04-08T08:12:55;95974.41;;;8.65;66.58
6218;BME280;3142;48.206;11.550;2023-04-08T08:15:21;95987.16;;;8.75;66.65
6218;BME280;3142;48.206;11.550;2023-04-08T08:17:49;95988.34;;;8.72;66.28
6218;BME280;3142;48.206;11.550;2023-04-08T08:20:16;95989.06;;;8.66;66.41
6218;BME280;3142;48.206;11.550;2023-04-08T08:22:42;95995.91;;;8.67;66.50
6218;BME280;3142;48.206;11.550;2023-04-08T08:25:09;95992.50;;;8.67;66.24
6218;BME280;3142;48.206;11.550;2023-04-08T08:27:36;95982.75;;;8.75;64.78
6218;BME280;3142;48.206;11.550;2023-04-08T08:30:05;95990.31;;;8.70;63.54
6218;BME280;3142;48.206;11.550;2023-04-08T08:32:32;95995.63;;;8.62;63.41
6218;BME280;3142;48.206;11.550;2023-04-08T08:35:00;96001.63;;;8.48;62.34
6218;BME280;3142;48.206;11.550;2023-04-08T08:37:27;96003.94;;;8.28;64.98
6218;BME280;3142;48.206;11.550;2023-04-08T08:39:53;96011.31;;;8.24;65.06
6218;BME280;3142;48.206;11.550;2023-04-08T08:42:20;96013.59;;;8.05;66.88
6218;BME280;3142;48.206;11.550;2023-04-08T08:44:47;96012.91;;;8.11;67.59
6218;BME280;3142;48.206;11.550;2023-04-08T08:47:14;96018.31;;;8.24;68.81
6218;BME280;3142;48.206;11.550;2023-04-08T08:49:41;96012.00;;;8.18;67.92
6218;BME280;3142;48.206;11.550;2023-04-08T08:52:09;96015.38;;;8.04;68.02
6218;BME280;3142;48.206;11.550;2023-04-08T08:54:35;96023.03;;;8.06;68.31
6218;BME280;3142;48.206;11.550;2023-04-08T08:57:02;96026.56;;;8.13;67.11
6218;BME280;3142;48.206;11.550;2023-04-08T08:59:29;96018.19;;;8.17;66.46
6218;BME280;3142;48.206;11.550;2023-04-08T09:01:55;96014.25;;;8.21;65.42
6218;BME280;3142;48.206;11.550;2023-04-08T09:04:22;96018.84;;;8.19;64.73
6218;BME280;3142;48.206;11.550;2023-04-08T09:06:49;96020.19;;;8.15;65.28
6218;BME280;3142;48.206;11.550;2023-04-08T09:09:46;96026.81;;;8.18;64.45
6218;BME280;3142;48.206;11.550;2023-04-08T09:12:13;96022.44;;;8.18;63.95
6218;BME280;3142;48.206;11.550;2023-04-08T09:14:40;96023.78;;;8.14;64.91
6218;BME280;3142;48.206;11.550;2023-04-08T09:17:06;96024.75;;;8.13;64.06
6218;BME280;3142;48.206;11.550;2023-04-08T09:19:33;96021.44;;;8.19;64.99
6218;BME280;3142;48.206;11.550;2023-04-08T09:22:06;96020.53;;;8.12;64.02
6218;BME280;3142;48.206;11.550;2023-04-08T09:24:35;96029.34;;;8.11;65.80
6218;BME280;3142;48.206;11.550;2023-04-08T09:27:02;96020.53;;;8.12;64.99
6218;BME280;3142;48.206;11.550;2023-04-08T09:29:28;96023.78;;;8.14;64.35
6218;BME280;3142;48.206;11.550;2023-04-08T09:31:56;96028.97;;;8.14;64.66
6218;BME280;3142;48.206;11.550;2023-04-08T09:34:23;96035.91;;;8.22;65.11
6218;BME280;3142;48.206;11.550;2023-04-08T09:36:50;96032.50;;;8.21;65.03
6218;BME280;3142;48.206;11.550;2023-04-08T09:39:17;96032.75;;;8.12;65.05
6218;BME280;3142;48.206;11.550;2023-04-08T09:41:47;96030.50;;;8.09;65.33
6218;BME280;3142;48.206;11.550;2023-04-08T09:44:14;96029.66;;;8.08;64.76
6218;BME280;3142;48.206;11.550;2023-04-08T09:46:52;96020.63;;;8.19;64.68
6218;BME280;3142;48.206;11.550;2023-04-08T09:49:25;96023.09;;;8.35;65.09
6218;BME280;3142;48.206;11.550;2023-04-08T09:51:54;96028.06;;;8.45;64.78
6218;BME280;3142;48.206;11.550;2023-04-08T09:54:31;96022.59;;;8.54;65.48
6218;BME280;3142;48.206;11.550;2023-04-08T09:57:04;96028.63;;;8.55;65.71
6218;BME280;3142;48.206;11.550;2023-04-08T09:59:33;96022.25;;;8.72;64.54
6218;BME280;3142;48.206;11.550;2023-04-08T10:02:06;96017.56;;;8.82;63.75
6218;BME280;3142;48.206;11.550;2023-04-08T10:04:34;96017.63;;;9.04;63.81
6218;BME280;3142;48.206;11.550;2023-04-08T10:07:03;96018.50;;;9.26;63.75
6218;BME280;3142;48.206;11.550;2023-04-08T10:09:32;96020.66;;;9.37;64.53
6218;BME280;3142;48.206;11.550;2023-04-08T10:12:01;96016.28;;;9.44;63.81
6218;BME280;3142;48.206;11.550;2023-04-08T10:14:28;96024.31;;;9.42;61.66
6218;BME280;3142;48.206;11.550;2023-04-08T10:17:25;96019.75;;;9.30;62.50
6218;BME280;3142;48.206;11.550;2023-04-08T10:19:52;96022.03;;;9.18;62.65
6218;BME280;3142;48.206;11.550;2023-04-08T10:22:45;96026.00;;;9.14;62.90
6218;BME280;3142;48.206;11.550;2023-04-08T10:25:28;96020.91;;;9.06;63.89
6218;BME280;3142;48.206;11.550;2023-04-08T10:27:57;96020.44;;;8.87;63.63
6218;BME280;3142;48.206;11.550;2023-04-08T10:30:44;96028.91;;;8.89;64.62
6218;BME280;3142;48.206;11.550;2023-04-08T10:33:13;96021.00;;;8.83;63.58
6218;BME280;3142;48.206;11.550;2023-04-08T10:35:41;96021.38;;;8.80;64.02
6218;BME280;3142;48.206;11.550;2023-04-08T10:38:11;96018.66;;;8.73;64.46
6218;BME280;3142;48.206;11.550;2023-04-08T10:40:39;96025.66;;;8.73;64.25
6218;BME280;3142;48.206;11.550;2023-04-08T10:43:09;96020.72;;;8.63;64.85
6218;BME280;3142;48.206;11.550;2023-04-08T10:45:36;96023.69;;;8.60;64.73
6218;BME280;3142;48.206;11.550;2023-04-08T10:48:24;96022.25;;;8.57;65.22
6218;BME280;3142;48.206;11.550;2023-04-08T10:50:54;96025.59;;;8.66;65.74
6218;BME280;3142;48.206;11.550;2023-04-08T10:53:27;96023.31;;;8.63;66.04
6218;BME280;3142;48.206;11.550;2023-04-08T10:55:54;96030.50;;;8.61;67.03
6218;BME280;3142;48.206;11.550;2023-04-08T10:58:29;96023.78;;;8.52;67.53
6218;BME280;3142;48.206;11.550;2023-04-08T11:01:02;96028.53;;;8.48;67.12
6218;BME280;3142;48.206;11.550;2023-04-08T11:03:31;96036.63;;;8.39;67.42
6218;BME280;3142;48.206;11.550;2023-04-08T11:05:58;96033.31;;;8.22;67.53
6218;BME280;3142;48.206;11.550;2023-04-08T11:08:26;96038.66;;;8.06;68.92
6218;BME280;3142;48.206;11.550;2023-04-08T11:10:53;96032.47;;;8.07;68.95
6218;BME280;3142;48.206;11.550;2023-04-08T11:13:21;96039.00;;;8.02;70.54
6218;BME280;3142;48.206;11.550;2023-04-08T11:15:49;96036.00;;;7.91;70.17
6218;BME280;3142;48.206;11.550;2023-04-08T11:18:16;96045.44;;;7.92;71.15
6218;BME280;3142;48.206;11.550;2023-04-08T11:20:43;96038.16;;;7.87;71.97
6218;BME280;3142;48.206;11.550;2023-04-08T11:23:11;96035.50;;;7.72;70.95
6218;BME280;3142;48.206;11.550;2023-04-08T11:25:38;96034.50;;;7.73;71.82
6218;BME280;3142;48.206;11.550;2023-04-08T11:28:05;96038.69;;;7.83;72.13
6218;BME280;3142;48.206;11.550;2023-04-08T11:30:33;96048.44;;;7.81;71.58
6218;BME280;3142;48.206;11.550;2023-04-08T11:33:02;96039.50;;;7.83;71.68
6218;BME280;3142;48.206;11.550;2023-04-08T11:35:29;96045.25;;;7.93;71.47
6218;BME280;3142;48.206;11.550;2023-04-08T11:37:56;96044.06;;;7.81;70.52
6218;BME280;3142;48.206;11.550;2023-04-08T11:40:22;96048.75;;;7.63;70.90
6218;BME280;3142;48.206;11.550;2023-04-08T11:42:51;96046.34;;;7.53;70.79
6218;BME280;3142;48.206;11.550;2023-04-08T11:45:19;96054.88;;;7.39;70.38
6218;BME280;3142;48.206;11.550;2023-04-08T11:47:46;96053.78;;;7.33;70.45
6218;BME280;3142;48.206;11.550;2023-04-08T11:50:22;96045.16;;;7.33;70.47
6218;BME280;3142;48.206;11.550;2023-04-08T11:52:50;96041.03;;;7.47;69.64
6218;BME280;3142;48.206;11.550;2023-04-08T11:55:24;96048.25;;;7.36;70.33
6218;BME280;3142;48.206;11.550;2023-04-08T11:57:51;96048.06;;;7.38;70.66
6218;BME280;3142;48.206;11.550;2023-04-08T12:00:19;96044.63;;;7.46;71.16
6218;BME280;3142;48.206;11.550;2023-04-08T12:02:45;96048.50;;;7.50;71.12
6218;BME280;3142;48.206;11.550;2023-04-08T12:05:13;96053.75;;;7.41;71.47
6218;BME280;3142;48.206;11.550;2023-04-08T12:07:41;96061.25;;;7.36;71.67
6218;BME280;3142;48.206;11.550;2023-04-08T12:10:08;96059.78;;;7.42;71.87
6218;BME280;3142;48.206;11.550;2023-04-08T12:12:35;96055.56;;;7.41;71.68
6218;BME280;3142;48.206;11.550;2023-04-08T12:15:02;96065.31;;;7.39;71.60
6218;BME280;3142;48.206;11.550;2023-04-08T12:17:28;96065.66;;;7.36;71.69
6218;BME280;3142;48.206;11.550;2023-04-08T12:19:55;96065.16;;;7.40;72.12
6218;BME280;3142;48.206;11.550;2023-04-08T12:22:21;96067.69;;;7.49;71.42
6218;BME280;3142;48.206;11.550;2023-04-08T12:24:49;96069.53;;;7.40;72.69
6218;BME280;3142;48.206;11.550;2023-04-08T12:27:16;96067.44;;;7.35;71.99
6218;BME280;3142;48.206;11.550;2023-04-08T12:29:42;96071.66;;;7.36;72.65
6218;BME280;3142;48.206;11.550;2023-04-08T12:32:10;96073.28;;;7.37;72.23
6218;BME280;3142;48.206;11.550;2023-04-08T12:34:37;96065.31;;;7.39;71.87
6218;BME280;3142;48.206;11.550;2023-04-08T12:37:04;96069.53;;;7.40;72.19
6218;BME280;3142;48.206;11.550;2023-04-08T12:39:30;96070.81;;;7.44;73.03
6218;BME280;3142;48.206;11.550;2023-04-08T12:41:58;96073.84;;;7.56;71.96
6218;BME280;3142;48.206;11.550;2023-04-08T12:44:24;96072.78;;;7.42;71.98
6218;BME280;3142;48.206;11.550;2023-04-08T12:46:51;96076.91;;;7.28;72.51
6218;BME280;3142;48.206;11.550;2023-04-08T12:49:17;96078.91;;;7.18;73.07
6218;BME280;3142;48.206;11.550;2023-04-08T12:51:44;96081.00;;;7.23;72.85
6218;BME280;3142;48.206;11.550;2023-04-08T12:54:10;96079.38;;;7.22;73.81
6218;BME280;3142;48.206;11.550;2023-04-08T12:56:37;96081.00;;;7.23;73.92
6218;BME280;3142;48.206;11.550;2023-04-08T12:59:05;96078.72;;;7.28;73.77
6218;BME280;3142;48.206;11.550;2023-04-08T13:01:32;96079.00;;;7.33;73.23
6218;BME280;3142;48.206;11.550;2023-04-08T13:03:58;96080.66;;;7.26;73.97
6218;BME280;3142;48.206;11.550;2023-04-08T13:06:24;96078.75;;;7.20;74.58
6218;BME280;3142;48.206;11.550;2023-04-08T13:08:51;96082.63;;;7.24;74.29
6218;BME280;3142;48.206;11.550;2023-04-08T13:11:18;96076.78;;;7.22;74.73
6218;BME280;3142;48.206;11.550;2023-04-08T13:13:45;96080.81;;;7.24;74.80
6218;BME280;3142;48.206;11.550;2023-04-08T13:16:13;96086.53;;;7.28;74.87
6218;BME280;3142;48.206;11.550;2023-04-08T13:18:39;96087.19;;;7.22;74.77
6218;BME280;3142;48.206;11.550;2023-04-08T13:21:06;96079.09;;;7.17;75.13
6218;BME280;3142;48.206;11.550;2023-04-08T13:23:33;96082.50;;;7.09;74.65
6218;BME280;3142;48.206;11.550;2023-04-08T13:26:00;96087.69;;;7.17;75.08